Time;durP1;ratioP1;P1;durP2;ratioP2;P2;SDS_P1;SDS_P2;PMS_P1;PMS_P2;Temp;Humidity;BMP_temperature;BMP_pressure;BME280_temperature;BME280_humidity;BME280_pressure;Samples;Min_cycle;Max_cycle;Signal;HPM_P1;HPM_P2
2022/05/25 00:00:18;;;;;;;6.20;1.08;;;12.70;99.90;;;;;;4179798;28;20190;-94
2022/05/25 00:02:19;;;;;;;5.57;1.13;;;12.70;99.90;;;;;;4179172;28;20180;-92
2022/05/25 00:04:20;;;;;;;4.35;1.02;;;12.60;99.90;;;;;;4180312;28;20183;-88
2022/05/25 00:06:21;;;;;;;4.32;1.27;;;12.60;99.90;;;;;;4196626;28;20178;-93
2022/05/25 00:08:21;;;;;;;7.38;1.13;;;12.60;99.90;;;;;;4180179;28;20274;-94
2022/05/25 00:10:22;;;;;;;3.50;0.88;;;12.50;99.90;;;;;;4180060;28;20946;-87
2022/05/25 00:12:23;;;;;;;6.22;0.85;;;12.50;99.90;;;;;;4180094;28;20265;-88
2022/05/25 00:14:23;;;;;;;5.95;1.00;;;12.40;99.90;;;;;;4179955;28;20202;-88
2022/05/25 00:16:24;;;;;;;3.80;0.80;;;12.30;99.90;;;;;;4196646;28;20248;-88
2022/05/25 00:18:25;;;;;;;4.35;1.20;;;12.30;99.90;;;;;;4179856;28;20182;-93
2022/05/25 00:20:26;;;;;;;8.82;1.13;;;12.30;99.90;;;;;;4196573;28;20163;-87
2022/05/25 00:22:49;;;;;;;2.80;0.68;;;12.30;99.90;;;;;;4180244;28;20730;-90
2022/05/25 00:24:50;;;;;;;3.70;0.88;;;12.30;99.90;;;;;;4213291;28;20231;-89
2022/05/25 00:26:50;;;;;;;8.30;1.30;;;12.20;99.90;;;;;;4180046;28;20211;-89
2022/05/25 00:28:51;;;;;;;4.75;1.45;;;12.20;99.90;;;;;;4179886;28;20259;-88
2022/05/25 00:30:52;;;;;;;3.28;1.10;;;12.20;99.90;;;;;;4179972;28;20667;-88
2022/05/25 00:32:57;;;;;;;3.20;0.88;;;12.30;99.90;;;;;;4196651;28;20253;-88
2022/05/25 00:34:57;;;;;;;6.32;1.23;;;12.20;99.90;;;;;;4181393;28;20164;-88
2022/05/25 00:36:58;;;;;;;4.60;1.13;;;12.10;99.90;;;;;;4197482;28;20301;-88
2022/05/25 00:38:59;;;;;;;4.43;0.98;;;12.10;99.90;;;;;;4181217;28;20663;-88
2022/05/25 00:40:59;;;;;;;6.18;1.30;;;12.20;99.90;;;;;;4180321;28;20289;-88
2022/05/25 00:43:00;;;;;;;6.80;1.27;;;12.10;99.90;;;;;;4180670;28;20171;-88
2022/05/25 00:45:02;;;;;;;3.40;1.20;;;12.10;99.90;;;;;;4180277;28;20171;-88
2022/05/25 00:47:03;;;;;;;7.53;1.23;;;12.20;99.90;;;;;;4181090;28;20683;-88
2022/05/25 00:49:20;;;;;;;4.90;1.00;;;12.10;99.90;;;;;;4181946;28;20164;-93
2022/05/25 00:51:31;;;;;;;8.00;1.20;;;12.10;99.90;;;;;;4197106;28;20219;-87
2022/05/25 00:53:33;;;;;;;3.90;1.20;;;12.10;99.90;;;;;;4180047;28;20194;-88
2022/05/25 00:55:33;;;;;;;7.40;1.08;;;12.10;99.90;;;;;;4179852;28;20196;-88
2022/05/25 00:57:41;;;;;;;5.60;1.52;;;12.10;99.90;;;;;;4196137;28;20233;-88
2022/05/25 01:00:08;;;;;;;8.23;1.20;;;12.00;99.90;;;;;;4180178;28;20282;-88
2022/05/25 01:02:08;;;;;;;5.40;1.30;;;12.00;99.90;;;;;;4187910;28;20280;-88
2022/05/25 01:04:11;;;;;;;6.65;1.55;;;11.90;99.90;;;;;;4179725;28;20571;-88
2022/05/25 01:06:14;;;;;;;6.13;1.27;;;11.90;99.90;;;;;;4179860;28;20674;-87
2022/05/25 01:08:24;;;;;;;5.90;1.25;;;11.90;99.90;;;;;;4179492;28;20176;-88
2022/05/25 01:11:03;;;;;;;8.27;1.65;;;11.80;99.90;;;;;;4196132;28;20221;-88
2022/05/25 01:13:14;;;;;;;5.07;1.30;;;11.80;99.90;;;;;;4197590;28;20167;-88
2022/05/25 01:15:43;;;;;;;4.93;1.50;;;11.60;99.90;;;;;;4182465;28;20217;-87
2022/05/25 01:18:03;;;;;;;5.93;1.08;;;11.60;99.90;;;;;;4182720;28;20579;-88
2022/05/25 01:20:22;;;;;;;3.22;1.20;;;11.60;99.90;;;;;;4182641;28;20191;-95
2022/05/25 01:22:44;;;;;;;6.85;1.60;;;11.60;99.90;;;;;;4182823;28;20187;-89
2022/05/25 01:25:22;;;;;;;4.93;1.50;;;11.50;99.90;;;;;;4182744;28;20183;-88
2022/05/25 01:27:41;;;;;;;3.28;1.50;;;11.60;99.90;;;;;;4182533;28;20195;-87
2022/05/25 01:30:07;;;;;;;8.43;1.58;;;11.60;99.90;;;;;;4182318;28;20174;-87
2022/05/25 01:32:14;;;;;;;5.78;1.55;;;11.60;99.90;;;;;;4182487;28;20549;-88
2022/05/25 01:34:22;;;;;;;4.03;1.20;;;11.40;99.90;;;;;;4182389;28;20674;-87
2022/05/25 01:36:54;;;;;;;9.52;1.63;;;11.40;99.90;;;;;;4182039;28;20209;-89
2022/05/25 01:39:02;;;;;;;5.90;1.42;;;11.50;99.90;;;;;;4198766;28;20171;-93
2022/05/25 01:41:30;;;;;;;7.15;1.35;;;11.40;99.90;;;;;;4181886;28;20175;-88
2022/05/25 01:43:40;;;;;;;6.97;1.40;;;11.40;99.90;;;;;;4182138;28;20191;-88
2022/05/25 01:45:46;;;;;;;6.22;1.52;;;11.40;99.90;;;;;;4181923;28;20730;-88
2022/05/25 01:47:49;;;;;;;7.22;1.33;;;11.40;99.90;;;;;;4198759;28;20555;-89
2022/05/25 01:50:05;;;;;;;4.38;1.35;;;11.40;99.90;;;;;;4182265;28;20194;-91
2022/05/25 01:52:13;;;;;;;3.33;1.27;;;11.30;99.90;;;;;;4181972;28;20597;-89
2022/05/25 01:54:17;;;;;;;6.32;1.40;;;11.40;99.90;;;;;;4198748;28;20182;-87
2022/05/25 01:56:20;;;;;;;6.15;1.60;;;11.30;99.90;;;;;;4181722;28;20171;-93
2022/05/25 01:58:23;;;;;;;4.75;1.52;;;11.20;99.90;;;;;;4181845;28;20273;-88
2022/05/25 02:00:31;;;;;;;5.50;1.38;;;11.20;99.90;;;;;;4198564;28;20178;-92
2022/05/25 02:04:52;;;;;;;3.17;1.33;;;11.20;99.90;;;;;;4198385;28;20175;-87
2022/05/25 02:07:07;;;;;;;6.13;1.40;;;11.10;99.90;;;;;;4198175;28;20190;-88
2022/05/25 02:09:31;;;;;;;4.85;1.42;;;11.10;99.90;;;;;;4198386;28;20543;-88
2022/05/25 02:11:37;;;;;;;5.43;1.77;;;11.10;99.90;;;;;;4181675;28;20247;-87
2022/05/25 02:13:56;;;;;;;7.40;1.40;;;11.00;99.90;;;;;;4182128;28;20590;-88
2022/05/25 02:16:35;;;;;;;3.67;1.40;;;11.00;99.90;;;;;;4199718;28;20167;-88
2022/05/25 02:18:55;;;;;;;8.40;1.48;;;11.00;99.90;;;;;;4200241;28;20413;-92
2022/05/25 02:21:17;;;;;;;3.92;1.30;;;10.90;99.90;;;;;;4184422;28;20171;-88
2022/05/25 02:23:54;;;;;;;5.55;1.10;;;10.90;99.90;;;;;;4183228;28;20724;-88
2022/05/25 02:26:08;;;;;;;5.85;1.50;;;10.90;99.90;;;;;;4200531;28;20646;-88
2022/05/25 02:28:27;;;;;;;7.97;1.30;;;10.80;99.90;;;;;;4185270;28;20254;-87
2022/05/25 02:30:32;;;;;;;5.85;1.40;;;10.80;99.90;;;;;;4184015;28;20310;-88
2022/05/25 02:32:43;;;;;;;8.20;1.35;;;10.90;99.90;;;;;;4199741;28;20171;-88
2022/05/25 02:34:49;;;;;;;9.02;1.67;;;10.90;99.90;;;;;;4182070;28;20176;-87
2022/05/25 02:36:51;;;;;;;7.45;1.83;;;10.90;99.90;;;;;;4181238;28;20187;-88
2022/05/25 02:38:52;;;;;;;8.40;1.50;;;10.90;99.90;;;;;;4181285;28;20164;-88
2022/05/25 02:41:10;;;;;;;3.67;1.42;;;10.80;99.90;;;;;;4181374;28;20180;-91
2022/05/25 02:43:11;;;;;;;7.28;1.55;;;10.90;99.90;;;;;;4181320;28;20211;-88
2022/05/25 02:45:12;;;;;;;4.20;1.53;;;10.80;99.90;;;;;;4197541;28;20670;-92
2022/05/25 02:47:13;;;;;;;6.80;1.50;;;10.90;99.90;;;;;;4181201;28;20186;-92
2022/05/25 02:49:15;;;;;;;5.72;1.60;;;10.80;99.90;;;;;;4181283;28;20183;-87
2022/05/25 02:51:16;;;;;;;7.38;1.88;;;10.80;99.90;;;;;;4181178;28;20215;-94
2022/05/25 02:53:17;;;;;;;3.58;1.30;;;10.80;99.90;;;;;;4181380;28;20175;-90
2022/05/25 02:55:18;;;;;;;6.38;1.58;;;10.80;99.90;;;;;;4181179;28;20306;-88
2022/05/25 02:57:19;;;;;;;4.78;1.52;;;10.80;99.90;;;;;;4180773;28;20281;-92
2022/05/25 02:59:20;;;;;;;6.20;1.58;;;10.80;99.90;;;;;;4181114;28;20245;-87
2022/05/25 03:01:20;;;;;;;3.95;1.58;;;10.70;99.90;;;;;;4181067;28;20175;-88
2022/05/25 03:03:21;;;;;;;3.25;1.48;;;10.70;99.90;;;;;;4180795;28;20617;-87
2022/05/25 03:05:23;;;;;;;4.95;1.40;;;10.70;99.90;;;;;;4197661;28;20167;-88
2022/05/25 03:07:25;;;;;;;4.72;1.65;;;10.70;99.90;;;;;;4214222;28;20194;-93
2022/05/25 03:09:26;;;;;;;5.97;1.70;;;10.80;99.90;;;;;;4180809;28;20285;-89
2022/05/25 03:11:26;;;;;;;3.50;1.48;;;10.70;99.90;;;;;;4197109;28;20610;-88
2022/05/25 03:13:27;;;;;;;4.30;1.65;;;10.70;99.90;;;;;;4180879;28;20168;-88
2022/05/25 03:15:28;;;;;;;7.50;1.90;;;10.60;99.90;;;;;;4180746;28;20202;-88
2022/05/25 03:17:28;;;;;;;6.00;1.63;;;10.60;99.90;;;;;;4180838;28;20210;-88
2022/05/25 03:19:29;;;;;;;4.40;1.70;;;10.60;99.90;;;;;;4197136;28;20696;-88
2022/05/25 03:21:30;;;;;;;3.95;1.30;;;10.60;99.90;;;;;;4180583;28;20197;-86
2022/05/25 03:23:31;;;;;;;5.13;1.83;;;10.60;99.90;;;;;;4197123;28;20313;-88
2022/05/25 03:25:31;;;;;;;4.88;1.60;;;10.50;99.90;;;;;;4180676;28;20709;-93
2022/05/25 03:27:32;;;;;;;4.97;1.75;;;10.60;99.90;;;;;;4196968;28;20255;-87
2022/05/25 03:29:33;;;;;;;10.27;1.58;;;10.50;99.90;;;;;;4180758;28;20180;-88
2022/05/25 03:31:34;;;;;;;7.00;1.70;;;10.50;99.90;;;;;;4180522;28;20241;-88
2022/05/25 03:33:34;;;;;;;4.13;1.70;;;10.60;99.90;;;;;;4196964;28;20193;-87
2022/05/25 03:35:36;;;;;;;5.97;2.10;;;10.60;99.90;;;;;;4180557;28;20274;-88
2022/05/25 03:37:37;;;;;;;5.43;2.00;;;10.70;99.90;;;;;;4180486;28;20687;-88
2022/05/25 03:39:38;;;;;;;4.68;1.50;;;10.60;99.90;;;;;;4180256;28;20179;-88
2022/05/25 03:41:39;;;;;;;4.60;1.70;;;10.70;99.90;;;;;;4180130;28;20187;-89
2022/05/25 03:43:39;;;;;;;5.88;1.77;;;10.70;99.90;;;;;;4196724;28;20179;-94
2022/05/25 03:45:41;;;;;;;5.90;1.90;;;10.70;99.90;;;;;;4180327;28;20310;-88
2022/05/25 03:47:41;;;;;;;6.88;1.88;;;10.60;99.90;;;;;;4180022;28;20237;-88
2022/05/25 03:49:42;;;;;;;8.52;1.55;;;10.60;99.90;;;;;;4196742;28;20183;-88
2022/05/25 03:51:43;;;;;;;7.20;1.58;;;10.60;99.90;;;;;;4180461;28;20243;-88
2022/05/25 03:53:44;;;;;;;2.83;1.70;;;10.60;99.90;;;;;;4197017;28;20271;-91
2022/05/25 03:55:47;;;;;;;7.10;1.70;;;10.60;99.90;;;;;;4180223;28;20206;-88
2022/05/25 03:57:47;;;;;;;7.75;1.70;;;10.60;99.90;;;;;;4179901;28;20747;-88
2022/05/25 03:59:48;;;;;;;3.95;1.80;;;10.50;99.90;;;;;;4180352;28;20210;-87
2022/05/25 04:01:49;;;;;;;4.28;1.60;;;10.50;99.90;;;;;;4180091;28;20175;-91
2022/05/25 04:03:49;;;;;;;8.55;2.10;;;10.60;99.90;;;;;;4179947;28;20179;-87
2022/05/25 04:05:50;;;;;;;7.20;1.75;;;10.60;99.90;;;;;;4180176;28;20190;-88
2022/05/25 04:07:51;;;;;;;5.65;1.80;;;10.60;99.90;;;;;;4179927;28;20199;-88
2022/05/25 04:09:52;;;;;;;3.78;1.67;;;10.70;99.90;;;;;;4180172;28;20230;-88
2022/05/25 04:11:52;;;;;;;5.20;1.70;;;10.60;99.90;;;;;;4180086;28;20201;-87
2022/05/25 04:13:53;;;;;;;7.00;1.67;;;10.70;99.90;;;;;;4180169;28;20297;-88
2022/05/25 04:15:54;;;;;;;3.92;1.63;;;10.60;99.90;;;;;;4180024;28;20257;-88
2022/05/25 04:17:55;;;;;;;5.45;1.48;;;10.60;99.90;;;;;;4179854;28;20591;-88
2022/05/25 04:19:56;;;;;;;6.50;1.60;;;10.80;99.90;;;;;;4180268;28;20586;-89
2022/05/25 04:21:57;;;;;;;4.75;1.75;;;10.80;99.90;;;;;;4196572;28;20174;-88
2022/05/25 04:23:57;;;;;;;4.78;1.60;;;10.90;99.90;;;;;;4180016;28;20171;-90
2022/05/25 04:25:58;;;;;;;5.72;1.90;;;10.90;99.90;;;;;;4196339;28;20570;-88
2022/05/25 04:27:59;;;;;;;7.65;1.55;;;10.90;99.90;;;;;;4179578;28;20198;-87
2022/05/25 04:29:59;;;;;;;2.17;1.30;;;11.00;99.90;;;;;;4179819;28;20175;-88
2022/05/25 04:32:00;;;;;;;5.88;1.70;;;11.00;99.90;;;;;;4179945;28;20298;-87
2022/05/25 04:34:01;;;;;;;2.97;1.75;;;11.10;99.90;;;;;;4196403;28;20182;-87
2022/05/25 04:36:03;;;;;;;6.50;1.50;;;11.00;99.90;;;;;;4180168;28;20178;-88
2022/05/25 04:38:06;;;;;;;4.35;1.83;;;11.00;99.90;;;;;;4179955;28;20203;-88
2022/05/25 04:40:07;;;;;;;7.97;2.13;;;11.10;99.90;;;;;;4196470;28;20383;-87
2022/05/25 04:42:08;;;;;;;6.18;1.70;;;11.20;99.90;;;;;;4179479;28;20172;-87
2022/05/25 04:44:09;;;;;;;6.72;1.92;;;11.20;99.90;;;;;;4197016;28;20168;-88
2022/05/25 04:46:12;;;;;;;4.78;1.70;;;11.10;99.90;;;;;;4179681;28;20189;-87
2022/05/25 04:48:14;;;;;;;4.72;1.40;;;11.10;99.90;;;;;;4165510;28;20246;-87
2022/05/25 04:50:19;;;;;;;3.58;1.50;;;11.20;99.90;;;;;;4183099;28;20383;-88
2022/05/25 04:52:20;;;;;;;3.40;1.52;;;11.20;99.90;;;;;;4182953;28;20240;-87
2022/05/25 04:54:20;;;;;;;10.35;1.55;;;11.20;99.90;;;;;;4182945;28;20172;-87
2022/05/25 04:58:46;;;;;;;5.05;1.48;;;11.40;99.90;;;;;;4199332;28;20190;-88
2022/05/25 05:00:46;;;;;;;5.43;1.55;;;11.40;99.90;;;;;;4182880;28;20754;-88
2022/05/25 05:02:47;;;;;;;5.70;1.40;;;11.40;99.90;;;;;;4199458;28;20174;-88
2022/05/25 05:04:48;;;;;;;6.10;1.48;;;11.40;99.90;;;;;;4182838;28;20190;-88
2022/05/25 05:06:49;;;;;;;4.82;1.60;;;11.50;99.90;;;;;;4199389;28;20187;-88
2022/05/25 05:08:49;;;;;;;5.63;1.50;;;11.50;99.90;;;;;;4182516;28;20174;-87
2022/05/25 05:10:51;;;;;;;7.13;1.55;;;11.60;99.90;;;;;;4182672;28;20172;-87
2022/05/25 05:12:52;;;;;;;6.53;1.60;;;11.70;99.90;;;;;;4182630;28;20258;-88
2022/05/25 05:14:52;;;;;;;5.47;1.55;;;11.70;99.90;;;;;;4198941;28;20209;-89
2022/05/25 05:17:00;;;;;;;4.68;1.90;;;11.70;99.90;;;;;;4182611;28;20200;-86
2022/05/25 05:19:12;;;;;;;5.75;1.80;;;11.70;99.90;;;;;;4199049;28;20181;-86
2022/05/25 05:21:39;;;;;;;7.18;1.90;;;11.70;99.90;;;;;;4195901;28;20214;-87
2022/05/25 05:23:41;;;;;;;3.85;1.73;;;11.80;99.90;;;;;;4182138;28;20176;-88
2022/05/25 05:25:41;;;;;;;5.63;1.70;;;11.80;99.90;;;;;;4198956;28;20320;-87
2022/05/25 05:27:42;;;;;;;7.68;1.50;;;11.80;99.90;;;;;;4182432;28;20241;-86
2022/05/25 05:29:43;;;;;;;4.40;1.35;;;11.90;99.90;;;;;;4182324;28;20175;-86
2022/05/25 05:31:44;;;;;;;6.72;1.60;;;11.80;99.90;;;;;;4182434;28;20176;-87
2022/05/25 05:33:44;;;;;;;4.78;1.95;;;11.90;99.90;;;;;;4198990;28;20163;-87
2022/05/25 05:35:48;;;;;;;2.95;1.42;;;11.90;99.90;;;;;;4199286;28;20658;-87
2022/05/25 05:37:52;;;;;;;8.52;1.83;;;12.10;99.90;;;;;;4182193;28;20211;-85
2022/05/25 05:39:55;;;;;;;5.57;1.90;;;12.00;99.90;;;;;;4182272;28;20205;-87
2022/05/25 05:42:03;;;;;;;5.20;1.50;;;12.10;99.90;;;;;;4198752;28;20333;-87
2022/05/25 05:44:06;;;;;;;5.32;1.70;;;12.00;99.90;;;;;;4182358;28;20167;-86
2022/05/25 05:46:08;;;;;;;4.95;1.42;;;12.10;99.90;;;;;;4182383;28;20172;-87
2022/05/25 05:48:26;;;;;;;4.57;1.60;;;12.20;99.90;;;;;;4182665;28;20225;-87
2022/05/25 05:50:29;;;;;;;6.55;1.88;;;12.20;99.90;;;;;;4188183;28;20168;-87
2022/05/25 05:52:30;;;;;;;7.25;1.70;;;12.20;99.90;;;;;;4187910;28;20345;-87
2022/05/25 05:54:31;;;;;;;7.18;1.55;;;12.30;99.90;;;;;;4182088;28;20167;-88
2022/05/25 05:56:33;;;;;;;6.43;1.70;;;12.30;99.90;;;;;;4182053;28;20655;-85
2022/05/25 05:58:33;;;;;;;6.10;1.60;;;12.20;99.90;;;;;;4182507;28;20759;-89
2022/05/25 06:00:34;;;;;;;6.93;1.70;;;12.30;99.90;;;;;;4198751;28;20211;-87
2022/05/25 06:02:35;;;;;;;4.30;1.65;;;12.40;99.90;;;;;;4198473;28;20213;-87
2022/05/25 06:04:35;;;;;;;6.47;1.55;;;12.40;99.90;;;;;;4198592;28;20570;-87
2022/05/25 06:06:36;;;;;;;6.13;1.65;;;12.50;99.90;;;;;;4181991;28;20769;-87
2022/05/25 06:08:37;;;;;;;6.35;1.92;;;12.60;99.90;;;;;;4181682;28;20176;-87
2022/05/25 06:10:39;;;;;;;4.28;2.00;;;12.70;99.90;;;;;;4198256;28;20163;-87
2022/05/25 06:12:39;;;;;;;8.15;1.63;;;12.90;99.90;;;;;;4181582;28;20181;-87
2022/05/25 06:14:41;;;;;;;4.85;2.03;;;13.00;99.90;;;;;;4181952;28;20634;-86
2022/05/25 06:21:20;;;;;;;4.72;2.00;;;13.20;99.90;;;;;;4198211;28;20209;-87
2022/05/25 06:23:21;;;;;;;4.38;1.70;;;13.20;99.90;;;;;;4198099;28;20171;-87
2022/05/25 06:25:22;;;;;;;3.70;1.50;;;13.30;99.90;;;;;;4181785;28;20183;-86
2022/05/25 06:27:23;;;;;;;8.98;2.00;;;13.40;99.90;;;;;;4181469;28;20565;-87
2022/05/25 06:29:24;;;;;;;6.40;1.73;;;13.40;99.90;;;;;;4197787;28;20193;-88
2022/05/25 06:31:26;;;;;;;10.10;2.40;;;13.60;99.90;;;;;;4181365;28;20172;-87
2022/05/25 06:33:26;;;;;;;4.88;1.90;;;13.60;99.90;;;;;;4198014;28;20163;-87
2022/05/25 06:35:27;;;;;;;8.27;1.90;;;13.60;99.90;;;;;;4181596;28;20182;-86
2022/05/25 06:37:28;;;;;;;9.68;2.03;;;13.60;99.90;;;;;;4181352;28;20198;-86
2022/05/25 06:39:33;;;;;;;9.55;2.42;;;13.70;99.90;;;;;;4181612;28;20178;-87
2022/05/25 06:41:33;;;;;;;4.68;1.80;;;13.70;99.90;;;;;;4181206;28;20275;-86
2022/05/25 06:43:34;;;;;;;9.00;2.28;;;13.90;99.90;;;;;;4198489;28;20185;-87
2022/05/25 06:45:35;;;;;;;7.75;1.73;;;13.70;99.90;;;;;;4181719;28;20262;-88
2022/05/25 06:47:37;;;;;;;7.55;1.70;;;13.60;99.90;;;;;;4181202;28;20710;-87
2022/05/25 06:49:38;;;;;;;7.28;1.77;;;13.70;99.90;;;;;;4197736;28;20182;-88
2022/05/25 06:51:38;;;;;;;5.72;1.65;;;13.70;99.90;;;;;;4181308;28;20528;-87
2022/05/25 06:53:40;;;;;;;5.10;1.85;;;13.80;99.90;;;;;;4181434;28;20775;-87
2022/05/25 06:55:40;;;;;;;7.13;1.70;;;13.80;99.90;;;;;;4181452;28;20266;-86
2022/05/25 06:57:42;;;;;;;4.32;1.70;;;13.90;99.90;;;;;;4197664;28;20190;-86
2022/05/25 06:59:43;;;;;;;7.90;1.60;;;14.00;99.90;;;;;;4196943;22;20211;-86
2022/05/25 07:01:44;;;;;;;4.78;1.63;;;14.20;99.90;;;;;;4196524;28;20295;-88
2022/05/25 07:03:45;;;;;;;6.70;1.80;;;14.30;99.90;;;;;;4180207;28;20194;-93
2022/05/25 07:05:45;;;;;;;6.15;2.15;;;14.30;99.90;;;;;;4180373;28;20557;-89
2022/05/25 07:07:46;;;;;;;5.40;1.73;;;14.40;99.90;;;;;;4180009;28;20188;-87
2022/05/25 07:09:47;;;;;;;6.80;1.88;;;14.60;99.90;;;;;;4179621;28;20175;-88
2022/05/25 07:11:52;;;;;;;6.00;1.50;;;15.20;99.90;;;;;;4180679;28;20574;-93
2022/05/25 07:13:54;;;;;;;4.75;1.50;;;16.70;99.90;;;;;;4180392;28;20180;-90
2022/05/25 07:16:00;;;;;;;7.70;1.63;;;18.30;99.90;;;;;;4163912;28;20628;-87
2022/05/25 07:18:00;;;;;;;4.68;1.33;;;20.30;99.90;;;;;;4180131;28;20201;-93
2022/05/25 07:20:03;;;;;;;5.18;1.25;;;22.10;99.90;;;;;;4163192;28;20683;-88
2022/05/25 07:22:11;;;;;;;3.58;1.10;;;23.50;99.90;;;;;;4163408;28;20195;-86
2022/05/25 07:24:11;;;;;;;7.03;1.20;;;24.30;99.90;;;;;;4180295;28;20171;-87
2022/05/25 07:26:13;;;;;;;7.28;1.17;;;24.60;99.90;;;;;;4179904;28;20262;-87
2022/05/25 07:28:14;;;;;;;6.35;1.50;;;25.50;99.90;;;;;;4179316;28;20186;-88
2022/05/25 07:30:16;;;;;;;5.32;1.17;;;25.90;99.90;;;;;;4163651;28;20575;-93
2022/05/25 07:32:19;;;;;;;5.53;1.30;;;25.60;99.90;;;;;;4179420;28;20206;-86
2022/05/25 07:34:26;;;;;;;5.82;1.20;;;26.70;99.90;;;;;;4179513;28;20266;-93
2022/05/25 07:36:27;;;;;;;6.53;1.75;;;26.90;99.90;;;;;;4163216;28;20684;-85
2022/05/25 07:38:29;;;;;;;7.50;1.20;;;26.30;99.90;;;;;;4179087;28;20241;-85
2022/05/25 07:40:36;;;;;;;4.75;1.20;;;27.50;99.90;;;;;;4179630;28;20203;-87
2022/05/25 07:42:44;;;;;;;3.92;1.10;;;28.70;99.90;;;;;;4162416;28;20184;-86
2022/05/25 07:44:54;;;;;;;4.93;1.77;;;28.10;99.90;;;;;;4162589;28;20176;-85
2022/05/25 07:46:54;;;;;;;6.32;1.20;;;26.60;99.90;;;;;;4162817;28;20326;-89
2022/05/25 07:48:55;;;;;;;9.02;1.40;;;25.40;99.90;;;;;;4162927;28;20176;-87
2022/05/25 07:50:56;;;;;;;5.03;1.20;;;24.40;99.90;;;;;;4179204;28;20749;-87
2022/05/25 07:52:59;;;;;;;8.18;1.23;;;23.00;99.90;;;;;;4162460;28;20734;-87
2022/05/25 07:55:02;;;;;;;4.05;1.20;;;22.80;99.90;;;;;;4179130;28;20168;-93
2022/05/25 07:57:02;;;;;;;5.65;1.40;;;23.80;99.90;;;;;;4179091;28;20203;-87
2022/05/25 07:59:07;;;;;;;10.15;1.00;;;24.90;99.90;;;;;;4180358;28;20186;-89
2022/05/25 08:01:12;;;;;;;6.82;1.08;;;26.40;99.90;;;;;;4162572;28;20177;-88
2022/05/25 08:05:43;;;;;;;5.70;1.38;;;26.90;99.90;;;;;;4180422;28;20168;-89
2022/05/25 08:07:45;;;;;;;5.93;1.35;;;26.90;99.90;;;;;;4161963;28;20195;-88
2022/05/25 08:09:47;;;;;;;4.15;1.10;;;27.40;99.90;;;;;;4162913;28;20655;-93
2022/05/25 08:11:48;;;;;;;3.58;0.98;;;27.80;99.90;;;;;;4162700;28;20216;-94
2022/05/25 08:13:52;;;;;;;4.72;1.10;;;27.90;99.90;;;;;;4179227;28;20168;-92
2022/05/25 08:15:52;;;;;;;8.80;1.50;;;28.30;99.90;;;;;;4162610;28;20540;-87
2022/05/25 08:17:55;;;;;;;8.77;1.30;;;27.70;99.90;;;;;;4178766;28;20195;-94
2022/05/25 08:19:55;;;;;;;6.10;1.02;;;27.90;99.90;;;;;;4162411;28;20222;-94
2022/05/25 08:21:56;;;;;;;5.43;1.20;;;27.50;99.90;;;;;;4195765;28;20163;-90
2022/05/25 08:23:57;;;;;;;4.68;1.17;;;27.10;99.90;;;;;;4166069;28;20268;-90
2022/05/25 08:25:58;;;;;;;7.70;1.42;;;27.60;99.90;;;;;;4182133;28;20172;-91
2022/05/25 08:27:58;;;;;;;2.95;0.98;;;27.90;99.90;;;;;;4182417;28;20254;-88
2022/05/25 08:29:59;;;;;;;5.50;1.10;;;27.90;99.90;;;;;;4182339;28;20186;-89
2022/05/25 08:32:00;;;;;;;8.25;1.58;;;26.80;99.90;;;;;;4165161;28;20307;-88
2022/05/25 08:34:01;;;;;;;5.00;0.93;;;27.20;99.90;;;;;;4181904;28;20175;-88
2022/05/25 08:36:02;;;;;;;3.83;0.98;;;27.50;99.90;;;;;;4182299;28;20202;-92
2022/05/25 08:38:03;;;;;;;4.95;1.60;;;27.70;99.90;;;;;;4165659;28;20188;-89
2022/05/25 08:40:05;;;;;;;7.95;1.20;;;26.70;99.90;;;;;;4165756;28;20168;-92
2022/05/25 08:42:14;;;;;;;3.50;1.20;;;27.10;99.90;;;;;;4182611;28;20175;-94
2022/05/25 08:44:15;;;;;;;6.68;1.38;;;28.10;99.90;;;;;;4182073;28;20639;-89
2022/05/25 08:46:23;;;;;;;10.57;1.10;;;28.30;99.90;;;;;;4181934;28;20175;-88
2022/05/25 08:48:25;;;;;;;10.27;1.20;;;28.70;99.90;;;;;;4165525;28;20171;-88
2022/05/25 08:50:28;;;;;;;3.65;1.10;;;28.60;99.90;;;;;;4165288;28;20219;-93
2022/05/25 08:52:29;;;;;;;6.13;1.00;;;28.80;99.90;;;;;;4165893;28;20187;-90
2022/05/25 08:54:31;;;;;;;5.22;1.10;;;28.10;99.90;;;;;;4165898;28;20176;-89
2022/05/25 08:56:49;;;;;;;4.28;0.90;;;27.90;99.90;;;;;;4181737;28;20191;-88
2022/05/25 08:59:27;;;;;;;3.03;0.60;;;28.40;99.90;;;;;;4165492;28;20191;-89
2022/05/25 09:01:32;;;;;;;5.25;0.70;;;27.70;99.90;;;;;;4099711;29;20193;-89
2022/05/25 09:03:36;;;;;;;3.70;0.73;;;27.20;99.90;;;;;;4145062;28;20714;-87
2022/05/25 09:05:44;;;;;;;4.20;0.75;;;26.90;99.90;;;;;;4165419;28;20618;-93
2022/05/25 09:08:05;;;;;;;3.10;0.70;;;26.30;99.90;;;;;;4181767;28;20675;-93
2022/05/25 09:10:08;;;;;;;2.25;0.80;;;26.90;99.90;;;;;;4165069;28;20537;-88
2022/05/25 09:12:53;;;;;;;5.75;1.00;;;26.20;99.90;;;;;;4182907;28;20636;-92
2022/05/25 09:14:56;;;;;;;4.07;0.75;;;26.30;99.90;;;;;;4179323;28;20191;-88
2022/05/25 09:17:03;;;;;;;2.50;0.55;;;25.50;99.90;;;;;;4165277;28;20276;-87
2022/05/25 09:19:09;;;;;;;1.65;0.60;;;24.70;99.90;;;;;;4165157;28;20592;-87
2022/05/25 09:21:12;;;;;;;6.25;0.68;;;24.30;99.90;;;;;;4181762;28;20170;-91
2022/05/25 09:23:14;;;;;;;3.28;0.40;;;24.30;99.90;;;;;;4181617;28;20179;-94
2022/05/25 09:25:16;;;;;;;2.33;0.50;;;24.60;99.90;;;;;;4164893;28;20239;-89
2022/05/25 09:27:21;;;;;;;2.25;0.50;;;25.40;99.90;;;;;;4164816;28;20202;-87
2022/05/25 09:29:23;;;;;;;4.13;0.60;;;26.40;99.90;;;;;;4164971;28;20215;-87
2022/05/25 09:31:31;;;;;;;1.77;0.60;;;26.30;99.90;;;;;;4181011;28;20294;-90
2022/05/25 09:33:47;;;;;;;2.47;0.63;;;25.80;99.90;;;;;;4164130;28;20171;-88
2022/05/25 09:35:56;;;;;;;5.78;0.52;;;24.80;99.90;;;;;;4164708;28;20255;-89
2022/05/25 09:38:05;;;;;;;6.90;0.98;;;24.20;99.90;;;;;;4181775;28;20195;-87
2022/05/25 09:40:30;;;;;;;8.10;1.05;;;24.40;99.90;;;;;;4164827;28;20179;-87
2022/05/25 09:42:35;;;;;;;4.78;0.82;;;23.90;99.90;;;;;;4198151;28;20183;-86
2022/05/25 09:44:36;;;;;;;4.70;0.60;;;23.10;99.90;;;;;;4180889;28;20601;-86
2022/05/25 09:46:42;;;;;;;7.07;0.68;;;23.20;99.90;;;;;;4181027;28;20365;-88
2022/05/25 09:48:52;;;;;;;4.03;0.80;;;23.10;99.90;;;;;;4180620;28;20163;-93
2022/05/25 09:50:54;;;;;;;4.30;0.80;;;22.50;99.90;;;;;;4164780;28;20310;-90
2022/05/25 09:52:56;;;;;;;3.58;0.60;;;22.40;99.90;;;;;;4164761;28;20168;-93
2022/05/25 09:55:03;;;;;;;3.72;0.80;;;21.90;99.90;;;;;;4197399;28;20174;-86
2022/05/25 09:57:18;;;;;;;2.80;0.80;;;22.20;99.90;;;;;;4180971;28;20289;-93
2022/05/25 09:59:33;;;;;;;2.38;0.50;;;23.00;99.90;;;;;;4164039;28;20225;-93
2022/05/25 10:01:45;;;;;;;8.07;0.75;;;23.20;99.90;;;;;;4180870;28;20223;-89
2022/05/25 10:03:46;;;;;;;4.18;0.70;;;22.70;99.90;;;;;;4164695;28;20660;-88
2022/05/25 10:06:21;;;;;;;3.88;0.60;;;21.70;99.90;;;;;;4164934;28;20165;-90
2022/05/25 10:08:39;;;;;;;5.30;0.70;;;21.50;99.90;;;;;;4161337;28;20184;-87
2022/05/25 10:10:55;;;;;;;2.70;0.40;;;21.00;99.90;;;;;;4165118;28;20202;-91
2022/05/25 10:12:59;;;;;;;4.72;0.50;;;20.70;99.90;;;;;;4164719;28;20199;-90
2022/05/25 10:15:09;;;;;;;0.85;0.30;;;21.00;99.90;;;;;;4164739;28;20180;-88
2022/05/25 10:17:16;;;;;;;3.85;0.57;;;21.10;99.90;;;;;;4180900;28;20603;-86
2022/05/25 10:19:20;;;;;;;4.40;0.40;;;21.60;99.90;;;;;;4181211;28;20634;-87
2022/05/25 10:21:35;;;;;;;2.80;0.55;;;22.00;99.90;;;;;;4180869;28;20167;-89
2022/05/25 10:23:41;;;;;;;7.38;0.50;;;21.60;99.90;;;;;;4180879;28;20643;-92
2022/05/25 10:25:49;;;;;;;5.10;0.60;;;21.10;99.90;;;;;;4164336;28;20203;-90
2022/05/25 10:27:50;;;;;;;3.38;0.70;;;20.70;99.90;;;;;;4166374;28;20191;-86
2022/05/25 10:37:39;;;;;;;1.58;0.47;;;21.60;99.90;;;;;;4182140;28;20203;-87
2022/05/25 10:40:02;;;;;;;3.72;0.60;;;21.20;99.90;;;;;;4180313;28;20345;-86
2022/05/25 10:42:08;;;;;;;1.50;0.45;;;21.30;99.90;;;;;;4180669;28;20164;-88
2022/05/25 10:44:34;;;;;;;5.80;0.60;;;21.60;99.90;;;;;;4163775;28;20592;-93
2022/05/25 10:46:40;;;;;;;6.15;0.57;;;21.20;99.90;;;;;;4196603;28;20303;-91
2022/05/25 10:48:54;;;;;;;4.20;0.57;;;21.10;99.90;;;;;;4181332;28;20270;-88
2022/05/25 10:51:02;;;;;;;1.20;0.43;;;21.10;99.90;;;;;;4180662;28;20268;-88
2022/05/25 10:53:21;;;;;;;3.50;0.60;;;21.20;99.90;;;;;;4180501;28;20228;-88
2022/05/25 10:55:29;;;;;;;2.33;0.50;;;20.90;99.90;;;;;;4197902;28;20175;-94
2022/05/25 10:58:14;;;;;;;1.00;0.40;;;20.80;99.90;;;;;;4180729;28;20261;-87
2022/05/25 11:00:37;;;;;;;3.47;0.45;;;20.70;99.90;;;;;;4130866;28;20200;-87
2022/05/25 11:03:06;;;;;;;3.05;0.50;;;21.10;99.90;;;;;;4146931;28;20173;-92
2022/05/25 11:05:32;;;;;;;2.53;0.50;;;21.10;99.90;;;;;;4158884;28;20273;-93
2022/05/25 11:07:38;;;;;;;2.30;0.40;;;20.80;99.90;;;;;;4163872;28;20196;-86
2022/05/25 11:09:49;;;;;;;2.28;0.40;;;20.80;99.90;;;;;;4180541;28;20178;-93
2022/05/25 11:12:07;;;;;;;1.88;0.30;;;20.80;99.90;;;;;;4179752;28;20268;-86